createdAt,value
2018-05-02T00:00:38.263Z,11.36
2018-05-02T00:05:29.352Z,11.34
2018-05-02T00:10:21.104Z,11.34
2018-05-02T00:15:12.174Z,11.29
2018-05-02T00:20:03.208Z,11.21
2018-05-02T00:24:54.267Z,11.14
2018-05-02T00:29:45.287Z,11.12
2018-05-02T00:34:36.393Z,11.04
2018-05-02T00:39:28.180Z,11.00
2018-05-02T00:44:19.301Z,10.99
2018-05-02T00:49:16.202Z,10.95
2018-05-02T00:54:07.249Z,10.93
2018-05-02T00:58:59.019Z,10.83
2018-05-02T01:03:50.034Z,10.81
2018-05-02T01:08:41.129Z,10.71
2018-05-02T01:13:32.202Z,10.57
2018-05-02T01:18:23.275Z,10.37
2018-05-02T01:23:15.054Z,10.34
2018-05-02T01:28:06.105Z,10.31
2018-05-02T01:32:57.223Z,10.34
2018-05-02T01:37:48.248Z,10.33
2018-05-02T01:42:39.289Z,10.33
2018-05-02T01:47:30.373Z,10.17
2018-05-02T01:52:21.421Z,10.10
2018-05-02T01:57:12.465Z,10.04
2018-05-02T02:02:03.498Z,10.06
2018-05-02T02:06:54.592Z,10.00
2018-05-02T02:11:45.615Z,9.92
2018-05-02T02:16:36.665Z,9.87
2018-05-02T02:21:27.743Z,9.80
2018-05-02T02:26:18.766Z,9.76
2018-05-02T02:31:09.802Z,9.77
2018-05-02T02:36:00.837Z,9.76
2018-05-02T02:40:51.901Z,9.68
2018-05-02T02:45:43.744Z,9.66
2018-05-02T02:50:35.517Z,9.60
2018-05-02T02:55:26.561Z,9.52
2018-05-02T03:00:17.607Z,9.46
2018-05-02T03:05:08.644Z,9.37
2018-05-02T03:10:00.424Z,9.35
2018-05-02T03:14:51.477Z,9.32
2018-05-02T03:19:42.528Z,9.29
2018-05-02T03:24:33.576Z,9.24
2018-05-02T03:29:24.629Z,9.25
2018-05-02T03:34:15.700Z,9.31
2018-05-02T03:39:07.495Z,9.34
2018-05-02T03:43:58.524Z,9.32
2018-05-02T03:48:49.596Z,9.29
2018-05-02T03:53:41.429Z,9.23
2018-05-02T03:58:32.476Z,9.20
2018-05-02T04:03:42.377Z,9.17
2018-05-02T04:08:33.511Z,9.20
2018-05-02T04:13:24.625Z,9.21
2018-05-02T04:18:15.717Z,9.19
2018-05-02T04:23:07.484Z,9.17
2018-05-02T04:27:58.620Z,9.13
2018-05-02T04:32:49.689Z,9.15
2018-05-02T04:37:41.500Z,9.13
2018-05-02T04:42:32.590Z,9.16
2018-05-02T04:47:23.629Z,9.19
2018-05-02T04:52:14.688Z,9.24
2018-05-02T04:57:05.746Z,9.31
2018-05-02T05:01:56.875Z,9.34
2018-05-02T05:06:47.965Z,9.42
2018-05-02T05:11:39.036Z,9.49
2018-05-02T05:16:30.156Z,9.63
2018-05-02T05:21:21.187Z,9.78
2018-05-02T05:26:12.268Z,9.92
2018-05-02T05:31:04.038Z,10.08
2018-05-02T05:35:55.104Z,10.23
2018-05-02T05:40:46.124Z,10.40
2018-05-02T05:45:37.296Z,10.59
2018-05-02T05:50:29.061Z,10.70
2018-05-02T05:55:20.140Z,10.79
2018-05-02T06:00:11.932Z,10.93
2018-05-02T06:05:03.116Z,11.09
2018-05-02T06:09:54.072Z,11.19
2018-05-02T06:14:45.139Z,11.32
2018-05-02T06:19:36.220Z,11.48
2018-05-02T06:24:28.240Z,11.63
2018-05-02T06:29:20.087Z,11.83
2018-05-02T06:34:11.317Z,11.99
2018-05-02T06:39:05.333Z,12.12
2018-05-02T06:43:56.357Z,12.30
2018-05-02T06:48:47.389Z,12.54
2018-05-02T06:53:38.412Z,12.71
2018-05-02T06:58:29.426Z,12.92
2018-05-02T07:03:20.483Z,13.18
2018-05-02T07:08:11.541Z,13.50
2018-05-02T07:13:02.558Z,13.84
2018-05-02T07:17:54.369Z,14.34
2018-05-02T07:22:46.243Z,14.67
2018-05-02T07:27:38.017Z,15.00
2018-05-02T07:32:29.057Z,15.56
2018-05-02T07:37:20.149Z,15.91
2018-05-02T07:42:11.212Z,16.00
2018-05-02T07:47:02.280Z,15.96
2018-05-02T07:51:54.046Z,16.09
2018-05-02T07:56:45.111Z,16.34
2018-05-02T08:01:36.168Z,16.54
2018-05-02T08:06:27.974Z,16.67
2018-05-02T08:11:19.045Z,17.01
2018-05-02T08:16:10.080Z,16.72
2018-05-02T08:21:01.104Z,16.52
2018-05-02T08:25:52.177Z,16.65
2018-05-02T08:30:43.337Z,16.66
2018-05-02T08:35:34.369Z,16.78
2018-05-02T08:40:25.377Z,17.00
2018-05-02T08:45:17.186Z,17.26
2018-05-02T08:50:08.226Z,17.48
2018-05-02T08:54:59.999Z,17.62
2018-05-02T08:59:51.037Z,17.57
2018-05-02T09:04:42.089Z,17.48
2018-05-02T09:09:33.108Z,17.34
2018-05-02T09:14:24.165Z,17.13
2018-05-02T09:19:15.964Z,16.90
2018-05-02T09:24:07.009Z,16.75
2018-05-02T09:28:58.057Z,16.73
2018-05-02T09:33:49.845Z,16.69
2018-05-02T09:38:40.917Z,16.55
2018-05-02T09:43:32.702Z,16.48
2018-05-02T09:48:23.753Z,16.25
2018-05-02T09:53:14.815Z,16.08
2018-05-02T09:58:06.618Z,16.10
2018-05-02T10:02:57.657Z,16.06
2018-05-02T10:07:48.737Z,15.96
2018-05-02T10:12:39.856Z,15.99
2018-05-02T10:17:30.858Z,16.00
2018-05-02T10:22:21.903Z,15.99
2018-05-02T10:27:12.932Z,16.01
2018-05-02T10:32:04.843Z,16.02
2018-05-02T10:36:55.919Z,16.13
2018-05-02T10:41:47.045Z,16.23
2018-05-02T10:46:38.105Z,16.35
2018-05-02T10:51:29.162Z,16.45
2018-05-02T10:56:20.250Z,16.49
2018-05-02T11:01:11.300Z,16.50
2018-05-02T11:06:02.332Z,16.56
2018-05-02T11:10:53.377Z,16.54
2018-05-02T11:15:45.174Z,16.59
2018-05-02T11:20:36.325Z,16.64
2018-05-02T11:25:27.372Z,16.73
2018-05-02T11:30:19.180Z,16.75
2018-05-02T11:35:10.208Z,16.77
2018-05-02T11:40:01.253Z,16.72
2018-05-02T11:44:53.022Z,16.77
2018-05-02T11:49:44.044Z,16.71
2018-05-02T11:54:35.060Z,16.53
2018-05-02T11:59:26.125Z,16.45
2018-05-02T12:04:17.213Z,16.33
2018-05-02T12:09:08.297Z,16.23
2018-05-02T12:13:59.378Z,16.22
2018-05-02T12:18:50.408Z,16.25
2018-05-02T12:23:41.476Z,16.19
2018-05-02T12:28:33.256Z,16.08
2018-05-02T12:33:24.272Z,16.16
2018-05-02T12:38:15.396Z,16.23
2018-05-02T12:43:06.449Z,16.30
2018-05-02T12:47:57.558Z,16.18
2018-05-02T12:52:48.578Z,16.15
2018-05-02T12:57:39.601Z,16.16
2018-05-02T13:02:30.679Z,16.13
2018-05-02T13:07:21.720Z,16.03
2018-05-02T13:12:12.744Z,16.03
2018-05-02T13:17:04.510Z,16.00
2018-05-02T13:21:55.532Z,16.06
2018-05-02T13:26:46.581Z,16.13
2018-05-02T13:31:37.700Z,16.19
2018-05-02T13:36:28.732Z,16.24
2018-05-02T13:41:19.813Z,16.31
2018-05-02T13:46:10.872Z,16.39
2018-05-02T13:51:01.908Z,16.51
2018-05-02T13:55:52.940Z,16.56
2018-05-02T14:00:44.001Z,16.58
2018-05-02T14:05:35.796Z,16.68
2018-05-02T14:10:26.846Z,16.88
2018-05-02T14:15:17.910Z,16.96
2018-05-02T14:20:09.683Z,16.96
2018-05-02T14:25:00.700Z,16.99
2018-05-02T14:29:51.842Z,17.01
2018-05-02T14:34:42.878Z,16.98
2018-05-02T14:39:33.903Z,17.00
2018-05-02T14:44:24.932Z,17.04
2018-05-02T14:49:16.163Z,16.99
2018-05-02T14:54:07.244Z,17.01
2018-05-02T14:58:59.075Z,17.12
2018-05-02T15:03:50.867Z,17.17
2018-05-02T15:08:41.924Z,17.15
2018-05-02T15:13:33.003Z,17.18
2018-05-02T15:18:24.112Z,17.17
2018-05-02T15:23:15.881Z,17.17
2018-05-02T15:28:07.002Z,17.18
2018-05-02T15:32:58.764Z,17.14
2018-05-02T15:37:49.816Z,17.11
2018-05-02T15:42:40.849Z,17.12
2018-05-02T15:47:31.902Z,17.11
2018-05-02T15:52:22.919Z,17.12
2018-05-02T15:57:13.956Z,17.15
2018-05-02T16:02:04.984Z,17.11
2018-05-02T16:06:56.019Z,17.13
2018-05-02T16:11:47.130Z,17.15
2018-05-02T16:16:38.247Z,17.18
2018-05-02T16:21:29.280Z,17.19
2018-05-02T16:26:20.302Z,17.18
2018-05-02T16:31:11.512Z,17.12
2018-05-02T16:36:02.533Z,17.07
2018-05-02T16:40:53.633Z,17.00
2018-05-02T16:45:44.694Z,16.96
2018-05-02T16:50:35.733Z,16.97
2018-05-02T16:55:26.864Z,16.91
2018-05-02T17:00:18.586Z,16.86
2018-05-02T17:05:09.620Z,16.78
2018-05-02T17:10:00.637Z,16.74
2018-05-02T17:14:51.751Z,16.72
2018-05-02T17:19:42.805Z,16.70
2018-05-02T17:24:33.853Z,16.68
2018-05-02T17:29:24.899Z,16.65
2018-05-02T17:34:16.709Z,16.61
2018-05-02T17:39:07.748Z,16.59
2018-05-02T17:43:58.788Z,16.55
2018-05-02T17:48:50.596Z,16.50
2018-05-02T17:53:42.397Z,16.46
2018-05-02T17:58:33.449Z,16.42
2018-05-02T18:03:24.489Z,16.38
2018-05-02T18:08:15.505Z,16.34
2018-05-02T18:13:06.546Z,16.33
2018-05-02T18:17:58.372Z,16.31
2018-05-02T18:22:49.459Z,16.29
2018-05-02T18:27:40.457Z,16.29
2018-05-02T18:32:33.566Z,16.39
2018-05-02T18:37:25.961Z,16.37
2018-05-02T18:42:17.753Z,16.32
2018-05-02T18:47:08.836Z,16.24
2018-05-02T18:52:00.580Z,16.20
2018-05-02T18:56:52.385Z,16.16
2018-05-02T19:01:43.433Z,16.13
2018-05-02T19:06:35.286Z,16.09
2018-05-02T19:11:27.115Z,16.03
2018-05-02T19:16:18.935Z,15.96
2018-05-02T19:21:10.005Z,15.88
2018-05-02T19:26:07.320Z,15.84
2018-05-02T19:31:04.553Z,15.77
2018-05-02T19:35:55.605Z,15.71
2018-05-02T19:40:52.881Z,15.68
2018-05-02T19:45:43.913Z,15.66
2018-05-02T19:50:34.997Z,15.64
2018-05-02T19:55:26.060Z,15.63
2018-05-02T20:00:23.356Z,15.63
2018-05-02T20:05:15.165Z,15.62
2018-05-02T20:10:12.388Z,15.61
2018-05-02T20:15:03.436Z,15.60
2018-05-02T20:19:54.475Z,15.60
2018-05-02T20:24:45.523Z,15.58
2018-05-02T20:29:36.547Z,15.54
2018-05-02T20:34:27.587Z,15.50
2018-05-02T20:39:19.362Z,15.46
2018-05-02T20:44:10.409Z,15.40
2018-05-02T20:49:01.453Z,15.34
2018-05-02T20:53:52.535Z,15.29
2018-05-02T20:58:43.586Z,15.26
2018-05-02T21:03:34.633Z,15.21
2018-05-02T21:08:25.678Z,15.20
2018-05-02T21:13:17.529Z,15.18
2018-05-02T21:18:08.552Z,15.13
2018-05-02T21:23:00.349Z,15.06
2018-05-02T21:27:51.376Z,14.98
2018-05-02T21:32:42.496Z,14.94
2018-05-02T21:37:33.628Z,14.92
2018-05-02T21:42:24.652Z,14.89
2018-05-02T21:47:15.737Z,14.85
2018-05-02T21:52:06.774Z,14.85
2018-05-02T21:56:57.856Z,14.83
2018-05-02T22:01:49.633Z,14.80
2018-05-02T22:06:40.657Z,14.78
2018-05-02T22:11:31.703Z,14.78
2018-05-02T22:16:22.832Z,14.73
2018-05-02T22:21:13.877Z,14.71
2018-05-02T22:26:04.929Z,14.71
2018-05-02T22:30:55.990Z,14.69
2018-05-02T22:35:47.024Z,14.65
2018-05-02T22:40:38.050Z,14.59
2018-05-02T22:45:29.120Z,14.59
2018-05-02T22:50:20.192Z,14.57
2018-05-02T22:55:11.217Z,14.56
2018-05-02T23:00:02.371Z,14.54
2018-05-02T23:04:54.152Z,14.53
2018-05-02T23:09:45.170Z,14.54
2018-05-02T23:14:36.204Z,14.53
2018-05-02T23:19:27.285Z,14.52
2018-05-02T23:24:19.048Z,14.48
2018-05-02T23:29:10.083Z,14.42
2018-05-02T23:34:01.106Z,14.38
2018-05-02T23:38:52.148Z,14.38
2018-05-02T23:43:43.178Z,14.37
2018-05-02T23:48:34.225Z,14.36
2018-05-02T23:53:25.281Z,14.33
2018-05-02T23:58:17.071Z,14.30
